CheckWX is a tool to help pilots better visualize weather data.  It is not intended as a substitute for an official pre-flight weather briefing.

10:11:11 UTC

KRID METAR
Richmond Municipal Airport
Richmond, Indiana, USA
Current

16 mins ago

KRID 200955Z AUTO 07012KT 4SM RA CLR 00/00 A3008 RMK AO2 P0009
Observed
Feb-20 @ 09:55 UTC
Wind
  • 070° at 12 KTS
Visibility
6,437 meters
Flight Rules
MVFR
Conditions
Rain
Cloud Levels
  • Clear skies
Temperature
C / 32°F
Dewpoint
C / 32°F
Humidity
100%
Altimeter
30.08" Hg
Pressure
1018.62 hPa
Current Rain
0.09"
Previous

36 mins ago

KRID 200935Z AUTO 07012KT 2SM -SN M01/M01 A3010 RMK AO2 SKY OBSCURED P0003
Observed
Feb-20 @ 09:35 UTC
Wind
  • 070° at 12 KTS
Visibility
3,219 meters
Conditions
Light Snow
Temperature
-1°C / 30°F
Dewpoint
-1°C / 30°F
Humidity
100%
Altimeter
30.1" Hg
Pressure
1019.32 hPa
Current Rain
0.03"
Previous

56 mins ago

KRID 200915Z AUTO 08012G16KT 1 1/2SM -SN BKN004 M01/M01 A3011 RMK AO2
Observed
Feb-20 @ 09:15 UTC
Wind
  • 080° at 12 KTS
  • Gusting to 16 KTS
Visibility
2,414 meters
Flight Rules
LIFR
Conditions
Light Snow
Cloud Levels
  • Broken at 400' AGL
Temperature
-1°C / 30°F
Dewpoint
-1°C / 30°F
Humidity
100%
Altimeter
30.11" Hg
Pressure
1019.62 hPa